sensor_id;sensor_type;location;lat;lon;timestamp;temperature;humidity
80412;SHT30;69749;42.684;23.360;2024-02-23T00:00:17;9.22;54.47
80412;SHT30;69749;42.684;23.360;2024-02-23T00:02:43;9.32;53.69
80412;SHT30;69749;42.684;23.360;2024-02-23T00:05:09;9.35;53.53
80412;SHT30;69749;42.684;23.360;2024-02-23T00:07:34;9.19;53.68
80412;SHT30;69749;42.684;23.360;2024-02-23T00:10:02;9.19;54.16
80412;SHT30;69749;42.684;23.360;2024-02-23T00:12:31;9.29;53.92
80412;SHT30;69749;42.684;23.360;2024-02-23T00:14:59;9.35;53.46
80412;SHT30;69749;42.684;23.360;2024-02-23T00:17:24;9.05;54.38
80412;SHT30;69749;42.684;23.360;2024-02-23T00:19:50;9.05;54.59
80412;SHT30;69749;42.684;23.360;2024-02-23T00:22:18;9.11;54.31
80412;SHT30;69749;42.684;23.360;2024-02-23T00:24:49;8.95;54.40
80412;SHT30;69749;42.684;23.360;2024-02-23T00:27:17;8.98;54.75
80412;SHT30;69749;42.684;23.360;2024-02-23T00:29:43;9.06;54.46
80412;SHT30;69749;42.684;23.360;2024-02-23T00:32:08;9.01;54.54
80412;SHT30;69749;42.684;23.360;2024-02-23T00:34:34;9.09;54.56
80412;SHT30;69749;42.684;23.360;2024-02-23T00:36:59;9.22;53.79
80412;SHT30;69749;42.684;23.360;2024-02-23T00:39:25;9.20;53.59
80412;SHT30;69749;42.684;23.360;2024-02-23T00:41:50;9.20;53.89
80412;SHT30;69749;42.684;23.360;2024-02-23T00:44:16;9.25;53.84
80412;SHT30;69749;42.684;23.360;2024-02-23T00:46:41;9.12;54.46
80412;SHT30;69749;42.684;23.360;2024-02-23T00:49:07;9.18;54.57
80412;SHT30;69749;42.684;23.360;2024-02-23T00:51:32;9.19;54.63
80412;SHT30;69749;42.684;23.360;2024-02-23T00:53:58;9.23;54.78
80412;SHT30;69749;42.684;23.360;2024-02-23T00:56:23;9.26;54.48
80412;SHT30;69749;42.684;23.360;2024-02-23T00:58:50;9.35;53.77
80412;SHT30;69749;42.684;23.360;2024-02-23T01:01:16;9.40;53.54
80412;SHT30;69749;42.684;23.360;2024-02-23T01:03:41;9.32;53.30
80412;SHT30;69749;42.684;23.360;2024-02-23T01:06:07;9.29;53.87
80412;SHT30;69749;42.684;23.360;2024-02-23T01:08:32;9.32;54.22
80412;SHT30;69749;42.684;23.360;2024-02-23T01:10:58;9.20;53.88
80412;SHT30;69749;42.684;23.360;2024-02-23T01:13:23;9.19;53.77
80412;SHT30;69749;42.684;23.360;2024-02-23T01:15:49;9.29;53.76
80412;SHT30;69749;42.684;23.360;2024-02-23T01:18:14;9.35;53.69
80412;SHT30;69749;42.684;23.360;2024-02-23T01:20:40;9.40;53.01
80412;SHT30;69749;42.684;23.360;2024-02-23T01:23:05;9.40;52.74
80412;SHT30;69749;42.684;23.360;2024-02-23T01:25:31;9.39;53.00
80412;SHT30;69749;42.684;23.360;2024-02-23T01:27:56;9.33;53.22
80412;SHT30;69749;42.684;23.360;2024-02-23T01:30:22;9.27;52.98
80412;SHT30;69749;42.684;23.360;2024-02-23T01:32:47;9.14;53.19
80412;SHT30;69749;42.684;23.360;2024-02-23T01:35:13;9.16;53.30
80412;SHT30;69749;42.684;23.360;2024-02-23T01:37:39;9.19;53.17
80412;SHT30;69749;42.684;23.360;2024-02-23T01:40:05;9.19;53.19
80412;SHT30;69749;42.684;23.360;2024-02-23T01:42:31;9.14;53.45
80412;SHT30;69749;42.684;23.360;2024-02-23T01:44:57;9.02;53.78
80412;SHT30;69749;42.684;23.360;2024-02-23T01:47:23;8.77;54.47
80412;SHT30;69749;42.684;23.360;2024-02-23T01:49:49;8.92;54.33
80412;SHT30;69749;42.684;23.360;2024-02-23T01:52:16;8.88;54.38
80412;SHT30;69749;42.684;23.360;2024-02-23T01:54:43;8.92;54.28
80412;SHT30;69749;42.684;23.360;2024-02-23T01:57:09;9.05;53.82
80412;SHT30;69749;42.684;23.360;2024-02-23T01:59:36;9.05;53.74
80412;SHT30;69749;42.684;23.360;2024-02-23T02:02:03;9.18;53.68
80412;SHT30;69749;42.684;23.360;2024-02-23T02:04:29;9.22;53.76
80412;SHT30;69749;42.684;23.360;2024-02-23T02:06:55;9.02;54.06
80412;SHT30;69749;42.684;23.360;2024-02-23T02:09:21;9.09;54.01
80412;SHT30;69749;42.684;23.360;2024-02-23T02:11:49;9.08;53.98
80412;SHT30;69749;42.684;23.360;2024-02-23T02:14:16;9.18;53.88
80412;SHT30;69749;42.684;23.360;2024-02-23T02:16:42;9.19;54.42
80412;SHT30;69749;42.684;23.360;2024-02-23T02:19:09;9.25;54.33
80412;SHT30;69749;42.684;23.360;2024-02-23T02:21:35;9.23;54.10
80412;SHT30;69749;42.684;23.360;2024-02-23T02:24:00;9.26;54.22
80412;SHT30;69749;42.684;23.360;2024-02-23T02:26:26;9.29;53.73
80412;SHT30;69749;42.684;23.360;2024-02-23T02:28:51;9.30;53.68
80412;SHT30;69749;42.684;23.360;2024-02-23T02:31:18;9.27;53.64
80412;SHT30;69749;42.684;23.360;2024-02-23T02:33:43;9.33;53.45
80412;SHT30;69749;42.684;23.360;2024-02-23T02:36:09;9.30;53.45
80412;SHT30;69749;42.684;23.360;2024-02-23T02:38:34;9.11;54.36
80412;SHT30;69749;42.684;23.360;2024-02-23T02:41:00;8.69;55.39
80412;SHT30;69749;42.684;23.360;2024-02-23T02:43:26;8.72;55.30
80412;SHT30;69749;42.684;23.360;2024-02-23T02:45:52;8.89;55.14
80412;SHT30;69749;42.684;23.360;2024-02-23T02:48:17;8.99;54.94
80412;SHT30;69749;42.684;23.360;2024-02-23T02:50:43;9.08;54.60
80412;SHT30;69749;42.684;23.360;2024-02-23T02:53:09;9.05;54.47
80412;SHT30;69749;42.684;23.360;2024-02-23T02:55:41;9.08;54.59
80412;SHT30;69749;42.684;23.360;2024-02-23T02:58:07;9.11;54.61
80412;SHT30;69749;42.684;23.360;2024-02-23T03:00:33;9.11;54.54
80412;SHT30;69749;42.684;23.360;2024-02-23T03:02:58;9.22;54.69
80412;SHT30;69749;42.684;23.360;2024-02-23T03:05:24;9.18;54.62
80412;SHT30;69749;42.684;23.360;2024-02-23T03:07:49;9.14;54.95
80412;SHT30;69749;42.684;23.360;2024-02-23T03:10:15;9.18;54.86
80412;SHT30;69749;42.684;23.360;2024-02-23T03:12:41;9.20;54.91
80412;SHT30;69749;42.684;23.360;2024-02-23T03:15:07;9.08;55.03
80412;SHT30;69749;42.684;23.360;2024-02-23T03:17:34;9.11;55.33
80412;SHT30;69749;42.684;23.360;2024-02-23T03:19:59;9.12;55.31
80412;SHT30;69749;42.684;23.360;2024-02-23T03:22:25;9.14;55.20
80412;SHT30;69749;42.684;23.360;2024-02-23T03:24:50;9.16;55.06
80412;SHT30;69749;42.684;23.360;2024-02-23T03:27:16;9.20;54.95
80412;SHT30;69749;42.684;23.360;2024-02-23T03:29:41;9.12;55.43
80412;SHT30;69749;42.684;23.360;2024-02-23T03:32:07;9.01;55.79
80412;SHT30;69749;42.684;23.360;2024-02-23T03:34:32;9.02;55.82
80412;SHT30;69749;42.684;23.360;2024-02-23T03:36:58;9.04;55.47
80412;SHT30;69749;42.684;23.360;2024-02-23T03:39:25;9.08;55.31
80412;SHT30;69749;42.684;23.360;2024-02-23T03:41:50;9.11;55.30
80412;SHT30;69749;42.684;23.360;2024-02-23T03:44:16;9.19;55.20
80412;SHT30;69749;42.684;23.360;2024-02-23T03:46:41;9.16;55.13
80412;SHT30;69749;42.684;23.360;2024-02-23T03:49:07;9.04;55.43
80412;SHT30;69749;42.684;23.360;2024-02-23T03:51:33;8.78;56.28
80412;SHT30;69749;42.684;23.360;2024-02-23T03:54:00;8.72;56.83
80412;SHT30;69749;42.684;23.360;2024-02-23T03:56:25;8.82;56.65
80412;SHT30;69749;42.684;23.360;2024-02-23T03:58:51;8.95;56.17
80412;SHT30;69749;42.684;23.360;2024-02-23T04:01:19;9.01;55.54
80412;SHT30;69749;42.684;23.360;2024-02-23T04:03:44;8.98;55.52
80412;SHT30;69749;42.684;23.360;2024-02-23T04:06:10;8.84;55.80
80412;SHT30;69749;42.684;23.360;2024-02-23T04:08:35;8.89;55.80
80412;SHT30;69749;42.684;23.360;2024-02-23T04:11:01;8.88;55.50
80412;SHT30;69749;42.684;23.360;2024-02-23T04:13:26;9.01;55.67
80412;SHT30;69749;42.684;23.360;2024-02-23T04:15:52;9.06;55.49
80412;SHT30;69749;42.684;23.360;2024-02-23T04:18:17;9.11;55.09
80412;SHT30;69749;42.684;23.360;2024-02-23T04:20:43;9.09;55.13
80412;SHT30;69749;42.684;23.360;2024-02-23T04:23:08;8.98;55.05
80412;SHT30;69749;42.684;23.360;2024-02-23T04:25:34;9.02;54.89
80412;SHT30;69749;42.684;23.360;2024-02-23T04:27:59;9.09;54.89
80412;SHT30;69749;42.684;23.360;2024-02-23T04:30:25;8.72;55.29
80412;SHT30;69749;42.684;23.360;2024-02-23T04:32:50;8.50;56.29
80412;SHT30;69749;42.684;23.360;2024-02-23T04:35:16;8.57;56.16
80412;SHT30;69749;42.684;23.360;2024-02-23T04:37:44;8.63;55.88
80412;SHT30;69749;42.684;23.360;2024-02-23T04:40:10;8.77;55.40
80412;SHT30;69749;42.684;23.360;2024-02-23T04:42:36;8.82;55.33
80412;SHT30;69749;42.684;23.360;2024-02-23T04:45:02;8.72;55.50
80412;SHT30;69749;42.684;23.360;2024-02-23T04:47:27;8.81;55.14
80412;SHT30;69749;42.684;23.360;2024-02-23T04:49:53;8.82;55.00
80412;SHT30;69749;42.684;23.360;2024-02-23T04:52:18;8.84;54.93
80412;SHT30;69749;42.684;23.360;2024-02-23T04:54:44;8.82;55.03
80412;SHT30;69749;42.684;23.360;2024-02-23T04:57:09;8.68;55.44
80412;SHT30;69749;42.684;23.360;2024-02-23T04:59:35;8.65;55.55
80412;SHT30;69749;42.684;23.360;2024-02-23T05:02:00;8.64;55.80
80412;SHT30;69749;42.684;23.360;2024-02-23T05:04:26;8.61;56.32
80412;SHT30;69749;42.684;23.360;2024-02-23T05:06:52;8.64;56.26
80412;SHT30;69749;42.684;23.360;2024-02-23T05:09:17;8.58;55.78
80412;SHT30;69749;42.684;23.360;2024-02-23T05:11:43;8.46;56.05
80412;SHT30;69749;42.684;23.360;2024-02-23T05:14:08;8.48;56.12
80412;SHT30;69749;42.684;23.360;2024-02-23T05:16:34;8.38;56.37
80412;SHT30;69749;42.684;23.360;2024-02-23T05:18:59;8.51;56.00
80412;SHT30;69749;42.684;23.360;2024-02-23T05:21:25;8.57;55.96
80412;SHT30;69749;42.684;23.360;2024-02-23T05:23:51;8.36;56.37
80412;SHT30;69749;42.684;23.360;2024-02-23T05:26:17;8.34;56.51
80412;SHT30;69749;42.684;23.360;2024-02-23T05:28:42;8.33;56.51
80412;SHT30;69749;42.684;23.360;2024-02-23T05:31:09;8.26;56.75
80412;SHT30;69749;42.684;23.360;2024-02-23T05:33:35;8.20;56.88
80412;SHT30;69749;42.684;23.360;2024-02-23T05:36:00;8.00;57.65
80412;SHT30;69749;42.684;23.360;2024-02-23T05:38:26;7.99;57.77
80412;SHT30;69749;42.684;23.360;2024-02-23T05:40:51;7.92;58.02
80412;SHT30;69749;42.684;23.360;2024-02-23T05:43:17;7.98;57.81
80412;SHT30;69749;42.684;23.360;2024-02-23T05:45:42;7.72;58.71
80412;SHT30;69749;42.684;23.360;2024-02-23T05:48:09;8.23;57.77
80412;SHT30;69749;42.684;23.360;2024-02-23T05:50:34;10.62;50.92
80412;SHT30;69749;42.684;23.360;2024-02-23T05:53:00;12.51;45.94
80412;SHT30;69749;42.684;23.360;2024-02-23T05:55:25;13.74;42.41
80412;SHT30;69749;42.684;23.360;2024-02-23T05:57:51;14.86;40.28
80412;SHT30;69749;42.684;23.360;2024-02-23T06:00:17;15.31;38.71
80412;SHT30;69749;42.684;23.360;2024-02-23T06:02:47;16.16;37.60
80412;SHT30;69749;42.684;23.360;2024-02-23T06:05:12;17.02;36.12
80412;SHT30;69749;42.684;23.360;2024-02-23T06:07:38;18.02;34.07
80412;SHT30;69749;42.684;23.360;2024-02-23T06:10:04;18.08;33.27
80412;SHT30;69749;42.684;23.360;2024-02-23T06:12:30;18.59;32.08
80412;SHT30;69749;42.684;23.360;2024-02-23T06:14:56;18.97;31.80
80412;SHT30;69749;42.684;23.360;2024-02-23T06:17:22;19.11;31.17
80412;SHT30;69749;42.684;23.360;2024-02-23T06:19:48;19.85;30.26
80412;SHT30;69749;42.684;23.360;2024-02-23T06:22:14;20.30;29.31
80412;SHT30;69749;42.684;23.360;2024-02-23T06:31:25;22.83;25.91
80412;SHT30;69749;42.684;23.360;2024-02-23T06:33:51;23.66;25.36
80412;SHT30;69749;42.684;23.360;2024-02-23T06:36:17;24.31;24.36
80412;SHT30;69749;42.684;23.360;2024-02-23T06:38:44;23.59;24.77
80412;SHT30;69749;42.684;23.360;2024-02-23T06:41:11;23.08;25.35
80412;SHT30;69749;42.684;23.360;2024-02-23T06:43:37;24.21;24.42
80412;SHT30;69749;42.684;23.360;2024-02-23T06:46:06;24.35;23.97
80412;SHT30;69749;42.684;23.360;2024-02-23T06:48:33;23.59;24.84
80412;SHT30;69749;42.684;23.360;2024-02-23T06:50:59;22.96;25.17
80412;SHT30;69749;42.684;23.360;2024-02-23T06:53:25;24.35;24.12
80412;SHT30;69749;42.684;23.360;2024-02-23T06:55:50;25.36;22.55
80412;SHT30;69749;42.684;23.360;2024-02-23T06:58:16;26.01;21.80
80412;SHT30;69749;42.684;23.360;2024-02-23T07:00:43;25.73;22.32
80412;SHT30;69749;42.684;23.360;2024-02-23T07:03:09;25.24;22.53
80412;SHT30;69749;42.684;23.360;2024-02-23T07:05:34;25.88;22.30
80412;SHT30;69749;42.684;23.360;2024-02-23T07:08:01;26.63;21.62
80412;SHT30;69749;42.684;23.360;2024-02-23T07:10:27;27.08;20.34
80412;SHT30;69749;42.684;23.360;2024-02-23T07:12:53;27.89;20.13
80412;SHT30;69749;42.684;23.360;2024-02-23T07:15:19;27.24;20.85
80412;SHT30;69749;42.684;23.360;2024-02-23T07:17:45;26.96;21.10
80412;SHT30;69749;42.684;23.360;2024-02-23T07:20:11;27.93;20.28
80412;SHT30;69749;42.684;23.360;2024-02-23T07:22:37;28.16;20.20
80412;SHT30;69749;42.684;23.360;2024-02-23T07:25:03;29.12;19.29
80412;SHT30;69749;42.684;23.360;2024-02-23T07:27:29;28.99;19.80
80412;SHT30;69749;42.684;23.360;2024-02-23T07:29:56;29.13;19.48
80412;SHT30;69749;42.684;23.360;2024-02-23T07:32:21;30.12;18.83
80412;SHT30;69749;42.684;23.360;2024-02-23T07:34:47;30.28;18.72
80412;SHT30;69749;42.684;23.360;2024-02-23T07:37:13;30.11;18.81
80412;SHT30;69749;42.684;23.360;2024-02-23T07:39:38;30.45;18.80
80412;SHT30;69749;42.684;23.360;2024-02-23T07:42:04;31.16;17.98
80412;SHT30;69749;42.684;23.360;2024-02-23T07:44:31;31.86;17.50
80412;SHT30;69749;42.684;23.360;2024-02-23T07:46:57;31.51;17.77
80412;SHT30;69749;42.684;23.360;2024-02-23T07:49:24;31.85;17.74
80412;SHT30;69749;42.684;23.360;2024-02-23T07:51:50;32.09;17.80
80412;SHT30;69749;42.684;23.360;2024-02-23T07:54:15;32.92;17.30
80412;SHT30;69749;42.684;23.360;2024-02-23T07:56:41;33.59;16.63
80412;SHT30;69749;42.684;23.360;2024-02-23T07:59:07;33.58;16.60
80412;SHT30;69749;42.684;23.360;2024-02-23T08:01:33;33.56;16.66
80412;SHT30;69749;42.684;23.360;2024-02-23T08:03:59;32.47;17.20
80412;SHT30;69749;42.684;23.360;2024-02-23T08:06:25;32.94;17.18
80412;SHT30;69749;42.684;23.360;2024-02-23T08:08:51;33.76;16.73
80412;SHT30;69749;42.684;23.360;2024-02-23T08:11:19;33.42;16.66
80412;SHT30;69749;42.684;23.360;2024-02-23T08:13:44;32.98;17.39
80412;SHT30;69749;42.684;23.360;2024-02-23T08:16:10;32.68;17.53
80412;SHT30;69749;42.684;23.360;2024-02-23T08:18:36;33.59;16.77
80412;SHT30;69749;42.684;23.360;2024-02-23T08:21:02;34.04;16.64
80412;SHT30;69749;42.684;23.360;2024-02-23T08:23:28;34.91;16.27
80412;SHT30;69749;42.684;23.360;2024-02-23T08:25:55;35.40;15.61
80412;SHT30;69749;42.684;23.360;2024-02-23T08:28:22;36.05;15.21
80412;SHT30;69749;42.684;23.360;2024-02-23T08:30:48;35.25;15.72
80412;SHT30;69749;42.684;23.360;2024-02-23T08:33:14;35.90;15.34
80412;SHT30;69749;42.684;23.360;2024-02-23T08:35:39;35.46;15.52
80412;SHT30;69749;42.684;23.360;2024-02-23T08:38:05;34.61;16.15
80412;SHT30;69749;42.684;23.360;2024-02-23T08:40:30;32.30;17.62
80412;SHT30;69749;42.684;23.360;2024-02-23T08:42:56;31.16;18.88
80412;SHT30;69749;42.684;23.360;2024-02-23T08:45:22;30.51;19.31
80412;SHT30;69749;42.684;23.360;2024-02-23T08:47:50;29.80;19.84
80412;SHT30;69749;42.684;23.360;2024-02-23T08:50:16;31.18;18.81
80412;SHT30;69749;42.684;23.360;2024-02-23T08:52:41;32.84;17.54
80412;SHT30;69749;42.684;23.360;2024-02-23T08:55:07;33.65;16.85
80412;SHT30;69749;42.684;23.360;2024-02-23T08:57:33;34.91;15.89
80412;SHT30;69749;42.684;23.360;2024-02-23T08:59:58;35.88;15.20
80412;SHT30;69749;42.684;23.360;2024-02-23T09:02:24;36.79;14.72
80412;SHT30;69749;42.684;23.360;2024-02-23T09:04:50;37.60;14.04
80412;SHT30;69749;42.684;23.360;2024-02-23T09:07:15;37.86;13.96
80412;SHT30;69749;42.684;23.360;2024-02-23T09:09:41;38.11;13.84
80412;SHT30;69749;42.684;23.360;2024-02-23T09:12:07;38.75;13.62
80412;SHT30;69749;42.684;23.360;2024-02-23T09:14:36;38.26;13.68
80412;SHT30;69749;42.684;23.360;2024-02-23T09:17:03;38.49;13.44
80412;SHT30;69749;42.684;23.360;2024-02-23T09:19:29;37.35;13.88
80412;SHT30;69749;42.684;23.360;2024-02-23T09:21:55;36.68;14.38
80412;SHT30;69749;42.684;23.360;2024-02-23T09:24:20;36.11;14.80
80412;SHT30;69749;42.684;23.360;2024-02-23T09:26:47;36.01;14.37
80412;SHT30;69749;42.684;23.360;2024-02-23T09:29:13;35.22;14.64
80412;SHT30;69749;42.684;23.360;2024-02-23T09:31:38;34.35;15.23
80412;SHT30;69749;42.684;23.360;2024-02-23T09:34:04;33.76;15.62
80412;SHT30;69749;42.684;23.360;2024-02-23T09:36:29;33.12;16.16
80412;SHT30;69749;42.684;23.360;2024-02-23T09:38:55;32.54;16.42
80412;SHT30;69749;42.684;23.360;2024-02-23T09:41:22;31.59;16.85
80412;SHT30;69749;42.684;23.360;2024-02-23T09:43:49;31.20;17.26
80412;SHT30;69749;42.684;23.360;2024-02-23T09:46:16;30.79;17.62
80412;SHT30;69749;42.684;23.360;2024-02-23T09:48:45;30.21;17.98
80412;SHT30;69749;42.684;23.360;2024-02-23T09:51:15;29.80;18.51
80412;SHT30;69749;42.684;23.360;2024-02-23T09:53:41;29.57;18.67
80412;SHT30;69749;42.684;23.360;2024-02-23T09:56:08;29.02;19.01
80412;SHT30;69749;42.684;23.360;2024-02-23T09:58:35;28.47;19.37
80412;SHT30;69749;42.684;23.360;2024-02-23T10:01:04;28.40;19.61
80412;SHT30;69749;42.684;23.360;2024-02-23T10:03:30;28.39;19.58
80412;SHT30;69749;42.684;23.360;2024-02-23T10:05:56;27.90;19.86
80412;SHT30;69749;42.684;23.360;2024-02-23T10:08:25;27.82;20.04
80412;SHT30;69749;42.684;23.360;2024-02-23T10:10:50;27.48;20.36
80412;SHT30;69749;42.684;23.360;2024-02-23T10:13:20;27.49;20.32
80412;SHT30;69749;42.684;23.360;2024-02-23T10:15:46;27.42;20.31
80412;SHT30;69749;42.684;23.360;2024-02-23T10:18:12;27.07;20.43
80412;SHT30;69749;42.684;23.360;2024-02-23T10:20:38;26.29;21.14
80412;SHT30;69749;42.684;23.360;2024-02-23T10:23:04;26.15;21.59
80412;SHT30;69749;42.684;23.360;2024-02-23T10:25:32;26.36;21.67
80412;SHT30;69749;42.684;23.360;2024-02-23T10:28:02;26.36;21.47
80412;SHT30;69749;42.684;23.360;2024-02-23T10:30:27;26.33;21.69
80412;SHT30;69749;42.684;23.360;2024-02-23T10:32:56;26.43;21.53
80412;SHT30;69749;42.684;23.360;2024-02-23T10:35:23;26.25;21.70
80412;SHT30;69749;42.684;23.360;2024-02-23T10:37:49;25.37;22.37
80412;SHT30;69749;42.684;23.360;2024-02-23T10:40:18;25.08;22.94
80412;SHT30;69749;42.684;23.360;2024-02-23T10:42:55;24.76;22.98
80412;SHT30;69749;42.684;23.360;2024-02-23T10:45:22;24.64;23.46
80412;SHT30;69749;42.684;23.360;2024-02-23T10:47:48;24.25;24.04
80412;SHT30;69749;42.684;23.360;2024-02-23T10:50:17;24.31;23.87
80412;SHT30;69749;42.684;23.360;2024-02-23T10:52:45;24.61;23.39
80412;SHT30;69749;42.684;23.360;2024-02-23T10:55:12;24.62;23.48
80412;SHT30;69749;42.684;23.360;2024-02-23T10:57:37;24.34;23.42
80412;SHT30;69749;42.684;23.360;2024-02-23T11:00:05;24.02;22.97
80412;SHT30;69749;42.684;23.360;2024-02-23T11:02:37;23.89;23.51
80412;SHT30;69749;42.684;23.360;2024-02-23T11:05:04;23.89;23.55
80412;SHT30;69749;42.684;23.360;2024-02-23T11:07:30;23.67;23.51
80412;SHT30;69749;42.684;23.360;2024-02-23T11:09:59;23.69;26.33
80412;SHT30;69749;42.684;23.360;2024-02-23T11:12:26;23.55;23.85
80412;SHT30;69749;42.684;23.360;2024-02-23T11:14:56;23.27;24.27
80412;SHT30;69749;42.684;23.360;2024-02-23T11:17:22;23.10;25.97
80412;SHT30;69749;42.684;23.360;2024-02-23T11:19:50;23.00;25.96
80412;SHT30;69749;42.684;23.360;2024-02-23T11:22:24;22.78;25.62
80412;SHT30;69749;42.684;23.360;2024-02-23T11:24:51;22.46;24.86
80412;SHT30;69749;42.684;23.360;2024-02-23T11:27:16;22.18;25.47
80412;SHT30;69749;42.684;23.360;2024-02-23T11:29:46;22.18;25.40
80412;SHT30;69749;42.684;23.360;2024-02-23T11:32:16;22.09;25.03
80412;SHT30;69749;42.684;23.360;2024-02-23T11:34:55;21.85;25.28
80412;SHT30;69749;42.684;23.360;2024-02-23T11:37:22;21.68;25.19
80412;SHT30;69749;42.684;23.360;2024-02-23T11:39:48;21.58;25.62
80412;SHT30;69749;42.684;23.360;2024-02-23T11:42:13;21.18;26.19
80412;SHT30;69749;42.684;23.360;2024-02-23T11:44:39;21.12;26.46
80412;SHT30;69749;42.684;23.360;2024-02-23T11:47:07;21.19;26.53
80412;SHT30;69749;42.684;23.360;2024-02-23T11:49:32;21.16;26.46
80412;SHT30;69749;42.684;23.360;2024-02-23T11:51:58;21.19;26.61
80412;SHT30;69749;42.684;23.360;2024-02-23T11:54:24;20.96;26.18
80412;SHT30;69749;42.684;23.360;2024-02-23T11:56:50;20.92;26.31
80412;SHT30;69749;42.684;23.360;2024-02-23T11:59:19;20.98;26.56
80412;SHT30;69749;42.684;23.360;2024-02-23T12:01:46;20.93;26.49
80412;SHT30;69749;42.684;23.360;2024-02-23T12:04:12;20.72;26.33
80412;SHT30;69749;42.684;23.360;2024-02-23T12:06:40;20.62;26.19
80412;SHT30;69749;42.684;23.360;2024-02-23T12:09:05;20.55;26.87
80412;SHT30;69749;42.684;23.360;2024-02-23T12:11:33;20.31;27.10
80412;SHT30;69749;42.684;23.360;2024-02-23T12:13:58;20.45;27.22
80412;SHT30;69749;42.684;23.360;2024-02-23T12:16:25;20.41;25.84
80412;SHT30;69749;42.684;23.360;2024-02-23T12:18:54;20.28;26.06
80412;SHT30;69749;42.684;23.360;2024-02-23T12:21:21;20.25;26.30
80412;SHT30;69749;42.684;23.360;2024-02-23T12:23:48;20.06;26.25
80412;SHT30;69749;42.684;23.360;2024-02-23T12:26:16;19.83;26.66
80412;SHT30;69749;42.684;23.360;2024-02-23T12:28:43;19.67;26.95
80412;SHT30;69749;42.684;23.360;2024-02-23T12:31:08;19.61;26.98
80412;SHT30;69749;42.684;23.360;2024-02-23T12:33:36;19.79;27.70
80412;SHT30;69749;42.684;23.360;2024-02-23T12:36:05;19.85;28.14
80412;SHT30;69749;42.684;23.360;2024-02-23T12:38:31;19.77;28.14
80412;SHT30;69749;42.684;23.360;2024-02-23T12:40:57;19.80;28.08
80412;SHT30;69749;42.684;23.360;2024-02-23T12:43:24;19.89;27.41
80412;SHT30;69749;42.684;23.360;2024-02-23T12:45:56;19.94;27.36
80412;SHT30;69749;42.684;23.360;2024-02-23T12:48:22;19.73;27.36
80412;SHT30;69749;42.684;23.360;2024-02-23T12:50:49;19.70;27.31
80412;SHT30;69749;42.684;23.360;2024-02-23T12:53:34;19.55;27.54
80412;SHT30;69749;42.684;23.360;2024-02-23T12:56:05;19.39;27.67
80412;SHT30;69749;42.684;23.360;2024-02-23T12:58:34;19.18;27.83
80412;SHT30;69749;42.684;23.360;2024-02-23T13:01:00;19.18;27.90
80412;SHT30;69749;42.684;23.360;2024-02-23T13:03:27;19.35;27.94
80412;SHT30;69749;42.684;23.360;2024-02-23T13:05:54;19.49;27.96
80412;SHT30;69749;42.684;23.360;2024-02-23T13:08:21;19.51;28.46
80412;SHT30;69749;42.684;23.360;2024-02-23T13:10:46;19.54;28.71
80412;SHT30;69749;42.684;23.360;2024-02-23T13:13:12;19.42;29.23
80412;SHT30;69749;42.684;23.360;2024-02-23T13:15:43;19.34;29.20
80412;SHT30;69749;42.684;23.360;2024-02-23T13:18:09;19.26;29.40
80412;SHT30;69749;42.684;23.360;2024-02-23T13:20:35;19.28;28.77
80412;SHT30;69749;42.684;23.360;2024-02-23T13:23:01;19.41;28.74
80412;SHT30;69749;42.684;23.360;2024-02-23T13:25:27;19.46;28.53
80412;SHT30;69749;42.684;23.360;2024-02-23T13:27:53;19.51;28.86
80412;SHT30;69749;42.684;23.360;2024-02-23T13:30:18;19.44;28.77
80412;SHT30;69749;42.684;23.360;2024-02-23T13:32:44;19.34;28.29
80412;SHT30;69749;42.684;23.360;2024-02-23T13:35:10;19.28;27.93
80412;SHT30;69749;42.684;23.360;2024-02-23T13:37:35;19.31;27.73
80412;SHT30;69749;42.684;23.360;2024-02-23T13:40:01;19.34;28.01
80412;SHT30;69749;42.684;23.360;2024-02-23T13:42:26;19.28;28.07
80412;SHT30;69749;42.684;23.360;2024-02-23T13:44:52;19.14;28.56
80412;SHT30;69749;42.684;23.360;2024-02-23T13:47:17;19.04;28.79
80412;SHT30;69749;42.684;23.360;2024-02-23T13:49:43;19.04;28.82
80412;SHT30;69749;42.684;23.360;2024-02-23T13:52:08;19.10;28.73
80412;SHT30;69749;42.684;23.360;2024-02-23T13:54:34;18.97;28.60
80412;SHT30;69749;42.684;23.360;2024-02-23T13:57:00;19.01;29.01
80412;SHT30;69749;42.684;23.360;2024-02-23T13:59:25;19.04;29.10
80412;SHT30;69749;42.684;23.360;2024-02-23T14:01:51;18.97;27.09
80412;SHT30;69749;42.684;23.360;2024-02-23T14:04:16;18.86;27.45
80412;SHT30;69749;42.684;23.360;2024-02-23T14:06:42;18.90;27.72
80412;SHT30;69749;42.684;23.360;2024-02-23T14:09:08;18.94;28.37
80412;SHT30;69749;42.684;23.360;2024-02-23T14:11:34;18.88;29.26
80412;SHT30;69749;42.684;23.360;2024-02-23T14:14:00;18.91;28.97
80412;SHT30;69749;42.684;23.360;2024-02-23T14:16:26;18.91;28.36
80412;SHT30;69749;42.684;23.360;2024-02-23T14:18:51;18.93;28.74
80412;SHT30;69749;42.684;23.360;2024-02-23T14:21:17;18.80;28.46
80412;SHT30;69749;42.684;23.360;2024-02-23T14:23:43;18.67;28.61
80412;SHT30;69749;42.684;23.360;2024-02-23T14:26:09;18.78;28.64
80412;SHT30;69749;42.684;23.360;2024-02-23T14:28:35;18.83;28.28
80412;SHT30;69749;42.684;23.360;2024-02-23T14:31:00;18.86;28.44
80412;SHT30;69749;42.684;23.360;2024-02-23T14:33:26;18.88;28.91
80412;SHT30;69749;42.684;23.360;2024-02-23T14:35:51;18.70;29.04
80412;SHT30;69749;42.684;23.360;2024-02-23T14:38:17;18.61;28.57
80412;SHT30;69749;42.684;23.360;2024-02-23T14:40:43;18.60;28.85
80412;SHT30;69749;42.684;23.360;2024-02-23T14:43:09;18.56;29.04
80412;SHT30;69749;42.684;23.360;2024-02-23T14:45:35;18.43;29.38
80412;SHT30;69749;42.684;23.360;2024-02-23T14:48:01;18.60;29.29
80412;SHT30;69749;42.684;23.360;2024-02-23T14:50:27;18.63;29.36
80412;SHT30;69749;42.684;23.360;2024-02-23T14:52:52;18.60;29.10
80412;SHT30;69749;42.684;23.360;2024-02-23T14:55:19;18.45;29.17
80412;SHT30;69749;42.684;23.360;2024-02-23T14:57:45;18.22;29.64
80412;SHT30;69749;42.684;23.360;2024-02-23T15:00:11;18.21;29.81
80412;SHT30;69749;42.684;23.360;2024-02-23T15:02:37;18.28;29.74
80412;SHT30;69749;42.684;23.360;2024-02-23T15:05:05;18.12;30.38
80412;SHT30;69749;42.684;23.360;2024-02-23T15:07:31;18.01;30.70
80412;SHT30;69749;42.684;23.360;2024-02-23T15:09:57;18.06;30.88
80412;SHT30;69749;42.684;23.360;2024-02-23T15:12:22;18.08;31.04
80412;SHT30;69749;42.684;23.360;2024-02-23T15:14:49;18.10;31.06
80412;SHT30;69749;42.684;23.360;2024-02-23T15:17:15;18.12;31.02
80412;SHT30;69749;42.684;23.360;2024-02-23T15:19:41;18.10;31.18
80412;SHT30;69749;42.684;23.360;2024-02-23T15:22:06;17.97;31.43